CA-0463 weather

Saint-François-de-Laval (Laval Aviation)
Quebec, Canada

Public forecast

Using degrees Celsius for public forecast. Weather courtesy of forecast.io.

METAR (pilot weather report)

Closest report is Montréal / Saint-Hubert Airport, 12.4 nm (22.9 km) SE. Retrieved 2019/09/23 09:00 UTC (60 minutes ago):

CYHU 230900Z AUTO 24018G24KT 9SM FEW075 OVC130 25/17 A2967 RMK SLP048 DENSITY ALT 1500FT

TAF (pilot weather forecast)

Closest forecast is Montréal / Saint-Hubert Airport, 12.4 nm (22.9 km) SE. Retrieved 2019/09/23 06:48 UTC (3 hours ago):

TAF TAF CYHU 230542Z 2306/2406 22012G22KT P6SM BKN080 OVC200 TEMPO 2306/2312 P6SM -SHRA FM231200 25018G28KT P6SM SCT030 OVC070 TEMPO 2312/2314 P6SM -SHRA BKN020 OVC040 FM231400 24012G22KT P6SM OVC030 TEMPO 2314/2316 5SM -RA BR OVC020 FM231600 24012G22KT 5SM -RA BR SCT008 OVC020 TEMPO 2316/2322 P6SM NSW OVC025 FM232200 22010G20KT 4SM -SHRA BR SCT008 OVC020 PROB30 2322/2401 VRB20G35KT 2SM +TSRA BR OVC008CB FM240300 23010KT 5SM -SHRA BR OVC008 RMK FCST BASED ON AUTO OBS. NXT FCST BY 231200Z